Time,TemperatureF,DewpointF,PressureIn,WindDirection,WindDirectionDegrees,WindSpeedMPH,WindSpeedGustMPH,Humidity,HourlyPrecipIn,Conditions,Clouds,dailyrainin,SoftwareType,DateUTC
2013-06-08 00:02:00,52.0,45.0,29.91,NW,314,1.0,2.0,77,0.00,,,0.00,,2013-06-08 05:02:00,
2013-06-08 00:12:00,52.0,45.0,29.91,NW,314,1.0,2.0,77,0.00,,,0.00,,2013-06-08 05:12:00,
2013-06-08 00:22:00,52.0,45.0,29.91,NW,314,0.0,2.0,77,0.00,,,0.00,,2013-06-08 05:22:00,
2013-06-08 00:32:00,51.0,44.0,29.91,NW,314,1.0,2.0,78,0.00,,,0.00,,2013-06-08 05:32:00,
2013-06-08 00:42:00,51.0,44.0,29.91,NW,314,1.0,2.0,78,0.00,,,0.00,,2013-06-08 05:42:00,
2013-06-08 00:52:00,51.0,45.0,29.90,NW,314,0.0,2.0,80,0.00,,,0.00,,2013-06-08 05:52:00,
2013-06-08 01:02:00,50.0,45.0,29.90,NW,314,0.0,2.0,82,0.00,,,0.00,,2013-06-08 06:02:00,
2013-06-08 01:12:00,50.0,45.0,29.90,NW,314,0.0,2.0,82,0.00,,,0.00,,2013-06-08 06:12:00,
2013-06-08 01:22:00,50.0,45.0,29.90,NW,314,0.0,2.0,82,0.00,,,0.00,,2013-06-08 06:22:00,
2013-06-08 01:32:00,50.0,45.0,29.89,NW,314,0.0,2.0,83,0.00,,,0.00,,2013-06-08 06:32:00,
2013-06-08 01:42:00,50.0,45.0,29.89,NW,314,0.0,2.0,83,0.00,,,0.00,,2013-06-08 06:42:00,
2013-06-08 01:53:00,50.0,45.0,29.89,NW,314,0.0,2.0,83,0.00,,,0.00,,2013-06-08 06:53:00,
2013-06-08 02:02:00,50.0,45.0,29.89,NW,314,0.0,2.0,83,0.00,,,0.00,,2013-06-08 07:02:00,
2013-06-08 02:12:00,50.0,45.0,29.89,NW,314,0.0,2.0,83,0.00,,,0.00,,2013-06-08 07:12:00,
2013-06-08 02:22:00,49.0,45.0,29.90,NW,320,1.0,2.0,87,0.00,,,0.00,,2013-06-08 07:22:00,
2013-06-08 02:32:00,50.0,46.0,29.90,NW,319,1.0,2.0,87,0.00,,,0.00,,2013-06-08 07:32:00,
2013-06-08 02:42:00,50.0,46.0,29.90,NW,319,1.0,2.0,87,0.00,,,0.00,,2013-06-08 07:42:00,
2013-06-08 02:52:00,49.0,45.0,29.90,NW,318,0.0,2.0,85,0.00,,,0.00,,2013-06-08 07:52:00,
2013-06-08 03:02:00,49.0,45.0,29.90,NNW,339,0.0,2.0,86,0.00,,,0.00,,2013-06-08 08:02:00,
2013-06-08 03:12:00,49.0,45.0,29.90,NNW,339,0.0,2.0,86,0.00,,,0.00,,2013-06-08 08:12:00,
2013-06-08 03:22:00,49.0,45.0,29.90,NNW,339,0.0,2.0,86,0.00,,,0.00,,2013-06-08 08:22:00,
2013-06-08 03:32:00,49.0,46.0,29.89,NNW,333,1.0,2.0,88,0.00,,,0.00,,2013-06-08 08:32:00,
2013-06-08 03:42:00,49.0,46.0,29.89,NNW,333,1.0,2.0,88,0.00,,,0.00,,2013-06-08 08:42:00,
2013-06-08 03:53:00,49.0,45.0,29.90,NNW,331,0.0,2.0,87,0.00,,,0.00,,2013-06-08 08:53:00,
2013-06-08 04:02:00,50.0,46.0,29.91,NE,50,0.0,1.0,85,0.00,,,0.00,,2013-06-08 09:02:00,
2013-06-08 04:12:00,50.0,46.0,29.91,NE,50,0.0,1.0,85,0.00,,,0.00,,2013-06-08 09:12:00,
2013-06-08 04:22:00,50.0,46.0,29.90,NNE,26,0.0,1.0,86,0.00,,,0.00,,2013-06-08 09:22:00,
2013-06-08 04:33:00,50.0,46.0,29.91,ENE,57,0.0,1.0,86,0.00,,,0.00,,2013-06-08 09:33:00,
2013-06-08 04:43:00,50.0,46.0,29.91,ENE,57,0.0,1.0,86,0.00,,,0.00,,2013-06-08 09:43:00,
2013-06-08 04:53:00,51.0,45.0,29.90,WNW,303,1.0,4.0,79,0.00,,,0.00,,2013-06-08 09:53:00,
2013-06-08 05:03:00,51.0,45.0,29.90,WNW,303,1.0,4.0,79,0.00,,,0.00,,2013-06-08 10:03:00,
2013-06-08 05:12:00,51.0,45.0,29.90,WNW,303,1.0,4.0,79,0.00,,,0.00,,2013-06-08 10:12:00,
2013-06-08 05:22:00,51.0,46.0,29.91,NNE,28,0.0,2.0,82,0.00,,,0.00,,2013-06-08 10:22:00,
2013-06-08 05:33:00,51.0,46.0,29.91,WNW,289,0.0,3.0,82,0.00,,,0.00,,2013-06-08 10:33:00,
2013-06-08 05:43:00,51.0,46.0,29.91,WNW,289,0.0,3.0,82,0.00,,,0.00,,2013-06-08 10:43:00,
2013-06-08 05:52:00,51.0,45.0,29.91,NNW,337,0.0,2.0,80,0.00,,,0.00,,2013-06-08 10:52:00,
2013-06-08 06:02:00,52.0,47.0,29.92,North,352,0.0,1.0,82,0.00,,,0.00,,2013-06-08 11:02:00,
2013-06-08 06:12:00,52.0,47.0,29.92,North,352,0.0,1.0,82,0.00,,,0.00,,2013-06-08 11:12:00,
2013-06-08 06:22:00,52.0,47.0,29.91,NW,311,0.0,2.0,83,0.00,,,0.00,,2013-06-08 11:22:00,
2013-06-08 06:32:00,54.0,47.0,29.91,NNE,32,1.0,3.0,76,0.00,,,0.00,,2013-06-08 11:32:00,
2013-06-08 06:42:00,54.0,47.0,29.91,NNE,32,1.0,3.0,76,0.00,,,0.00,,2013-06-08 11:42:00,
2013-06-08 06:52:00,56.0,47.0,29.92,NNE,23,2.0,4.0,73,0.00,,,0.00,,2013-06-08 11:52:00,
2013-06-08 07:02:00,57.0,46.0,29.92,NW,323,2.0,4.0,67,0.00,,,0.00,,2013-06-08 12:02:00,
2013-06-08 07:12:00,57.0,46.0,29.92,NW,323,2.0,4.0,67,0.00,,,0.00,,2013-06-08 12:12:00,
2013-06-08 07:22:00,58.0,45.0,29.92,WNW,299,2.0,6.0,63,0.00,,,0.00,,2013-06-08 12:22:00,
2013-06-08 07:32:00,59.0,46.0,29.92,NNW,327,2.0,5.0,62,0.00,,,0.00,,2013-06-08 12:32:00,
2013-06-08 07:42:00,59.0,46.0,29.92,NNW,327,2.0,5.0,62,0.00,,,0.00,,2013-06-08 12:42:00,
2013-06-08 07:52:00,59.0,46.0,29.92,NNW,327,2.0,5.0,62,0.00,,,0.00,,2013-06-08 12:52:00,
2013-06-08 08:02:00,61.0,48.0,29.93,East,91,0.0,2.0,62,0.00,,,0.00,,2013-06-08 13:02:00,
2013-06-08 08:12:00,61.0,48.0,29.93,East,91,0.0,2.0,62,0.00,,,0.00,,2013-06-08 13:12:00,
2013-06-08 08:22:00,62.0,49.0,29.94,NNW,340,1.0,2.0,63,0.00,,,0.00,,2013-06-08 13:22:00,
2013-06-08 08:32:00,63.0,50.0,29.95,NNE,23,0.0,2.0,62,0.00,,,0.00,,2013-06-08 13:32:00,
2013-06-08 08:42:00,63.0,50.0,29.95,NNE,23,0.0,2.0,62,0.00,,,0.00,,2013-06-08 13:42:00,
2013-06-08 08:52:00,63.0,50.0,29.95,NNE,23,0.0,2.0,62,0.00,,,0.00,,2013-06-08 13:52:00,
2013-06-08 09:02:00,64.0,49.0,29.95,NNW,344,1.0,4.0,58,0.00,,,0.00,,2013-06-08 14:02:00,
2013-06-08 09:12:00,64.0,49.0,29.95,NNW,344,1.0,4.0,58,0.00,,,0.00,,2013-06-08 14:12:00,
2013-06-08 09:22:00,65.0,47.0,29.96,NW,311,2.0,4.0,53,0.00,,,0.00,,2013-06-08 14:22:00,
2013-06-08 09:32:00,64.0,47.0,29.96,NW,311,1.0,5.0,54,0.00,,,0.00,,2013-06-08 14:32:00,
2013-06-08 09:42:00,64.0,47.0,29.96,NW,311,1.0,5.0,54,0.00,,,0.00,,2013-06-08 14:42:00,
2013-06-08 09:52:00,65.0,47.0,29.96,NW,305,2.0,4.0,53,0.00,,,0.00,,2013-06-08 14:52:00,
2013-06-08 10:02:00,67.0,47.0,29.94,NNW,330,2.0,4.0,49,0.00,,,0.00,,2013-06-08 15:02:00,
2013-06-08 10:12:00,67.0,47.0,29.94,NNW,330,2.0,4.0,49,0.00,,,0.00,,2013-06-08 15:12:00,
2013-06-08 10:22:00,67.0,47.0,29.94,NNW,330,2.0,4.0,49,0.00,,,0.00,,2013-06-08 15:22:00,
2013-06-08 10:32:00,68.0,49.0,29.94,NNW,327,1.0,4.0,51,0.00,,,0.00,,2013-06-08 15:32:00,
2013-06-08 10:42:00,68.0,49.0,29.94,NNW,327,1.0,4.0,51,0.00,,,0.00,,2013-06-08 15:42:00,
2013-06-08 10:53:00,69.0,48.0,29.94,North,10,0.0,3.0,48,0.00,,,0.00,,2013-06-08 15:53:00,
2013-06-08 11:03:00,69.0,48.0,29.94,North,10,0.0,3.0,48,0.00,,,0.00,,2013-06-08 16:03:00,
2013-06-08 11:12:00,69.0,48.0,29.94,North,10,0.0,3.0,48,0.00,,,0.00,,2013-06-08 16:12:00,
2013-06-08 11:23:00,69.0,49.0,29.95,NNW,328,0.0,5.0,49,0.00,,,0.00,,2013-06-08 16:23:00,
2013-06-08 11:32:00,72.0,49.0,29.96,North,5,0.0,4.0,44,0.00,,,0.00,,2013-06-08 16:32:00,
2013-06-08 11:53:00,73.0,48.0,29.96,North,7,0.0,4.0,41,0.00,,,0.00,,2013-06-08 16:53:00,
2013-06-08 12:02:00,75.0,52.0,29.96,North,356,0.0,4.0,44,0.00,,,0.00,,2013-06-08 17:02:00,
2013-06-08 12:22:00,74.0,48.0,29.96,NW,307,2.0,4.0,40,0.00,,,0.00,,2013-06-08 17:22:00,
2013-06-08 12:32:00,75.0,48.0,29.95,North,353,0.0,4.0,39,0.00,,,0.00,,2013-06-08 17:32:00,
2013-06-08 12:52:00,74.0,46.0,29.95,NW,319,3.0,7.0,37,0.00,,,0.00,,2013-06-08 17:52:00,
2013-06-08 13:02:00,74.0,48.0,29.95,NW,308,2.0,5.0,40,0.00,,,0.00,,2013-06-08 18:02:00,
2013-06-08 13:12:00,74.0,48.0,29.95,NW,308,2.0,5.0,40,0.00,,,0.00,,2013-06-08 18:12:00,
2013-06-08 13:22:00,74.0,48.0,29.95,NW,308,2.0,5.0,40,0.00,,,0.00,,2013-06-08 18:22:00,
2013-06-08 13:32:00,75.0,48.0,29.95,NW,307,3.0,7.0,38,0.00,,,0.00,,2013-06-08 18:32:00,
2013-06-08 13:42:00,75.0,48.0,29.95,NW,307,3.0,7.0,38,0.00,,,0.00,,2013-06-08 18:42:00,
2013-06-08 13:52:00,78.0,50.0,29.95,North,353,0.0,4.0,37,0.00,,,0.00,,2013-06-08 18:52:00,
2013-06-08 14:03:00,78.0,47.0,29.95,NNW,337,2.0,5.0,34,0.00,,,0.00,,2013-06-08 19:03:00,
2013-06-08 14:53:00,77.0,51.0,29.94,NNE,13,2.0,5.0,40,0.00,,,0.00,,2013-06-08 19:53:00,
2013-06-08 15:02:00,80.0,51.0,29.94,NE,43,1.0,4.0,36,0.00,,,0.00,,2013-06-08 20:02:00,
2013-06-08 15:22:00,78.0,46.0,29.94,NNE,13,3.0,6.0,32,0.00,,,0.00,,2013-06-08 20:22:00,
2013-06-08 15:32:00,80.0,51.0,29.94,North,7,1.0,6.0,36,0.00,,,0.00,,2013-06-08 20:32:00,
2013-06-08 15:52:00,79.0,47.0,29.94,NNW,347,2.0,6.0,32,0.00,,,0.00,,2013-06-08 20:52:00,
2013-06-08 16:02:00,80.0,47.0,29.94,NNE,27,2.0,4.0,32,0.00,,,0.00,,2013-06-08 21:02:00,
2013-06-08 16:22:00,77.0,48.0,29.95,NE,39,1.0,4.0,36,0.00,,,0.00,,2013-06-08 21:22:00,
2013-06-08 16:33:00,74.0,47.0,29.95,North,4,1.0,5.0,39,0.00,,,0.00,,2013-06-08 21:33:00,
2013-06-08 16:43:00,74.0,47.0,29.95,North,4,1.0,5.0,39,0.00,,,0.00,,2013-06-08 21:43:00,
2013-06-08 16:52:00,76.0,47.0,29.96,NNE,30,2.0,4.0,36,0.00,,,0.00,,2013-06-08 21:52:00,
2013-06-08 17:33:00,71.0,49.0,29.96,ENE,57,2.0,4.0,45,0.00,,,0.00,,2013-06-08 22:33:00,
2013-06-08 17:43:00,71.0,48.0,29.96,East,87,2.0,4.0,44,0.00,,,0.00,,2013-06-08 22:43:00,
2013-06-08 17:52:00,71.0,48.0,29.96,East,87,2.0,4.0,44,0.00,,,0.00,,2013-06-08 22:52:00,
2013-06-08 18:02:00,72.0,48.0,29.96,East,82,0.0,4.0,43,0.00,,,0.00,,2013-06-08 23:02:00,
2013-06-08 18:12:00,71.0,46.0,29.97,ENE,63,2.0,4.0,41,0.00,,,0.00,,2013-06-08 23:12:00,
2013-06-08 18:22:00,71.0,46.0,29.97,ENE,63,2.0,4.0,41,0.00,,,0.00,,2013-06-08 23:22:00,
2013-06-08 18:32:00,71.0,47.0,29.97,ENE,72,1.0,4.0,42,0.00,,,0.00,,2013-06-08 23:32:00,
2013-06-08 18:52:00,70.0,48.0,29.97,NE,39,2.0,4.0,45,0.00,,,0.00,,2013-06-08 23:52:00,
2013-06-08 19:02:00,70.0,48.0,29.97,NE,39,2.0,4.0,45,0.00,,,0.00,,2013-06-09 00:02:00,
2013-06-08 19:12:00,70.0,48.0,29.97,NE,39,2.0,4.0,45,0.00,,,0.00,,2013-06-09 00:12:00,
2013-06-08 19:22:00,70.0,48.0,29.97,NE,39,2.0,4.0,45,0.00,,,0.00,,2013-06-09 00:22:00,
2013-06-08 19:32:00,64.0,47.0,29.98,NNE,20,2.0,2.0,55,0.00,,,0.00,,2013-06-09 00:32:00,
2013-06-08 19:42:00,64.0,47.0,29.98,NNE,20,2.0,2.0,55,0.00,,,0.00,,2013-06-09 00:42:00,
2013-06-08 19:52:00,64.0,47.0,29.98,NNE,20,2.0,2.0,55,0.00,,,0.00,,2013-06-09 00:52:00,
2013-06-08 20:02:00,62.0,49.0,29.98,ENE,65,0.0,3.0,62,0.00,,,0.00,,2013-06-09 01:02:00,
2013-06-08 20:12:00,61.0,49.0,29.98,NE,34,1.0,3.0,65,0.00,,,0.00,,2013-06-09 01:12:00,
2013-06-08 20:22:00,61.0,49.0,29.98,NE,34,1.0,3.0,65,0.00,,,0.00,,2013-06-09 01:22:00,
2013-06-08 20:32:00,61.0,50.0,29.98,NE,49,1.0,2.0,66,0.00,,,0.00,,2013-06-09 01:32:00,
2013-06-08 20:42:00,61.0,50.0,29.98,NE,49,1.0,2.0,66,0.00,,,0.00,,2013-06-09 01:42:00,
2013-06-08 20:52:00,61.0,50.0,29.98,NE,49,1.0,2.0,66,0.00,,,0.00,,2013-06-09 01:52:00,
2013-06-08 21:02:00,59.0,49.0,29.99,NNE,16,0.0,2.0,70,0.00,,,0.00,,2013-06-09 02:02:00,
2013-06-08 21:12:00,59.0,49.0,29.99,NNE,16,0.0,2.0,70,0.00,,,0.00,,2013-06-09 02:12:00,
2013-06-08 21:22:00,58.0,49.0,29.98,NNE,26,1.0,4.0,73,0.00,,,0.00,,2013-06-09 02:22:00,
2013-06-08 21:32:00,57.0,49.0,29.98,North,9,1.0,3.0,74,0.00,,,0.00,,2013-06-09 02:32:00,
2013-06-08 21:42:00,57.0,49.0,29.98,North,9,1.0,3.0,74,0.00,,,0.00,,2013-06-09 02:42:00,
2013-06-08 21:52:00,57.0,49.0,29.99,NNE,13,0.0,2.0,75,0.00,,,0.00,,2013-06-09 02:52:00,
2013-06-08 22:02:00,56.0,50.0,29.99,North,8,0.0,4.0,80,0.00,,,0.00,,2013-06-09 03:02:00,
2013-06-08 22:12:00,56.0,50.0,29.99,North,8,0.0,4.0,80,0.00,,,0.00,,2013-06-09 03:12:00,
2013-06-08 22:22:00,56.0,50.0,29.99,NE,40,0.0,2.0,80,0.00,,,0.00,,2013-06-09 03:22:00,
2013-06-08 22:33:00,56.0,51.0,29.99,NE,41,1.0,2.0,82,0.00,,,0.00,,2013-06-09 03:33:00,
2013-06-08 22:43:00,56.0,51.0,29.99,NE,41,1.0,2.0,82,0.00,,,0.00,,2013-06-09 03:43:00,
2013-06-08 22:53:00,56.0,51.0,29.99,NNE,33,1.0,3.0,82,0.00,,,0.00,,2013-06-09 03:53:00,
2013-06-08 23:03:00,56.0,51.0,29.99,North,5,1.0,4.0,82,0.00,,,0.00,,2013-06-09 04:03:00,
2013-06-08 23:12:00,56.0,51.0,29.99,North,5,1.0,4.0,82,0.00,,,0.00,,2013-06-09 04:12:00,
2013-06-08 23:22:00,56.0,51.0,29.99,NNE,22,0.0,2.0,82,0.00,,,0.00,,2013-06-09 04:22:00,
2013-06-08 23:32:00,56.0,51.0,30.00,East,94,1.0,2.0,84,0.00,,,0.00,,2013-06-09 04:32:00,
2013-06-08 23:42:00,56.0,51.0,30.00,East,94,1.0,2.0,84,0.00,,,0.00,,2013-06-09 04:42:00,
2013-06-08 23:52:00,56.0,52.0,30.00,SE,135,2.0,4.0,85,0.00,,,0.00,,2013-06-09 04:52:00,